Poreč, Hrvaška

02:33 AM CEST on april 28, 2015 (GMT +0200)
Nova Vas Porečka | | Change Station
CLOSE
Current Station
Osebne vremenske postaje
Location: Nova Vas, ISTRIA COUNTY
Višina: 436 ft
Nearby Weather Stations

Viš 436 ft 45.26 °N, 13.66 °E | Updated 60 seconds ago

Light Rain
Rahel dez
56.8 °F
Feels Like 56.8 °F
N
0.2
Veter Spremenljivo Veter od VJV
Gusts 2.5 mph

Danes
High -- | Low -- °F
--% Chance of Precip.
Yesterday
High -- | Low -- °F
Precip. -- v
5:59 AM 8:07 PM
Naraščajoča luna, 69% visible
Zračni tlak 29.59 v
Vidljivost 6.2 milje
Oblaki Oblacno 800 ft
Rosišče 55 °F
Vlažnost 93%
Padavine 0.00 v
Snow Depth Not available.
UV 0.0 out of 12
Pollen Not available.
Air Quality Not available.
Flu Activity Not available.
METAR LDPL 280030Z 10010KT 070V150 9999 -RA OVC008 14/13 Q1002

More Conditions Fewer Conditions

Zračni tlak 29.59 v
Vidljivost 6.2 milje
Oblaki Oblacno 800 ft
Rosišče 55 °F
Vlažnost 93%
Padavine 0.00 v
Snow Depth Not available.
UV 0.0 out of 12
Pollen Not available.
Air Quality Not available.
Flu Activity Not available.
METAR LDPL 280030Z 10010KT 070V150 9999 -RA OVC008 14/13 Q1002

More Conditions Fewer Conditions

10-Day Weather Forecast

Almanac

Astronomija

Apr. 28, 2015 Rise Set
Actual Time
Civil Twilight
Nautical Twilight
Astronomical Twilight
Moon
Length Of Visible Light
Dolžina dneva
Tomorrow will be .
, % of the Moon is Illuminated

Današnji ekstremi

Country Highs Country Lows

Community

WunderPhotos

Upload Photos

1,817,496 photos uploaded!

WunderBlogs® & News

Nearby

Air Quality

  Air Quality AQ Index Pollutant
Not available.

Snow Depth

Station Depth Višina

Earthquake Activity

City Distance Mag. Time & Date
Minimum magnitude displayed is 2.5.

Coastal Water Temperatures

Mesto Temperatura

Stations

Nearby Weather Stations

Station Location Temp Občutek zaradi vetra Rosišče Vlažnost Veter Precip. Viš Obnovljeno Type